Time;durP1;ratioP1;P1;durP2;ratioP2;P2;SDS_P1;SDS_P2;PMS_P1;PMS_P2;Temp;Humidity;BMP_temperature;BMP_pressure;BME280_temperature;BME280_humidity;BME280_pressure;Samples;Min_cycle;Max_cycle;Signal;HPM_P1;HPM_P2
2023/07/23 08:48:56;;;;;;;5.38;3.72;;;;;;;15.80;100.00;100454.06;5109635;27;20178;-64
2023/07/23 08:51:25;;;;;;;5.05;3.90;;;;;;;15.74;100.00;100455.94;5094431;28;20460;-69
2023/07/23 08:53:52;;;;;;;3.72;3.42;;;;;;;15.79;100.00;100452.44;5075808;28;20032;-67
2023/07/23 08:56:18;;;;;;;9.20;3.58;;;;;;;15.79;100.00;100447.78;5073259;28;20408;-70
2023/07/23 08:58:45;;;;;;;3.50;3.20;;;;;;;15.79;100.00;100457.88;5088049;28;20039;-68
2023/07/23 09:01:13;;;;;;;3.40;3.10;;;;;;;15.85;100.00;100463.09;5070565;28;20033;-69
2023/07/23 09:03:39;;;;;;;4.90;3.05;;;;;;;15.79;100.00;100446.97;5069542;28;20029;-67
2023/07/23 09:06:05;;;;;;;4.20;3.10;;;;;;;15.81;100.00;100450.28;5069107;28;20044;-68
2023/07/23 09:08:31;;;;;;;4.40;3.08;;;;;;;15.85;100.00;100448.63;5077864;28;20073;-68
2023/07/23 09:10:56;;;;;;;3.97;3.20;;;;;;;15.83;100.00;100459.00;5087958;28;20024;-68
2023/07/23 09:13:22;;;;;;;3.88;3.03;;;;;;;15.88;100.00;100456.25;5089688;28;20479;-69
2023/07/23 09:15:54;;;;;;;3.42;3.10;;;;;;;15.84;100.00;100461.44;5105224;28;20055;-67
2023/07/23 09:18:20;;;;;;;3.30;2.97;;;;;;;15.88;100.00;100457.09;5109569;28;20039;-67
2023/07/23 09:20:49;;;;;;;3.40;3.10;;;;;;;15.90;100.00;100465.81;5109340;28;20089;-67
2023/07/23 09:23:15;;;;;;;3.20;2.90;;;;;;;15.89;100.00;100468.81;5074626;28;20044;-68
2023/07/23 09:25:43;;;;;;;3.53;3.20;;;;;;;15.87;100.00;100465.56;5068967;28;20089;-68
2023/07/23 09:28:19;;;;;;;4.07;3.20;;;;;;;15.84;100.00;100457.91;5068986;28;20082;-66
2023/07/23 09:30:45;;;;;;;4.00;3.10;;;;;;;15.90;100.00;100467.75;5068667;28;20032;-67
2023/07/23 09:33:12;;;;;;;3.67;3.17;;;;;;;15.89;100.00;100466.09;5070622;28;20036;-69
2023/07/23 09:35:38;;;;;;;4.55;2.83;;;;;;;15.90;100.00;100467.75;5068825;28;20483;-66
2023/07/23 09:38:04;;;;;;;3.90;3.25;;;;;;;15.89;100.00;100471.56;5071039;28;20035;-69
2023/07/23 09:40:37;;;;;;;3.95;3.20;;;;;;;15.89;100.00;100471.56;5077283;28;20041;-66
2023/07/23 09:43:03;;;;;;;3.33;3.03;;;;;;;15.88;100.00;100465.28;5064822;28;20033;-66
2023/07/23 09:45:30;;;;;;;5.22;3.30;;;;;;;15.92;100.00;100468.28;5057423;28;20430;-65
2023/07/23 09:47:57;;;;;;;3.33;3.03;;;;;;;15.98;100.00;100472.66;5035440;28;20045;-66
2023/07/23 09:50:22;;;;;;;5.15;3.40;;;;;;;15.98;100.00;100471.84;5047139;28;20419;-65
2023/07/23 09:52:50;;;;;;;4.38;3.17;;;;;;;15.93;100.00;100476.19;5030764;28;20037;-69
2023/07/23 09:55:17;;;;;;;6.70;3.10;;;;;;;15.95;100.00;100473.19;5032424;28;20460;-65
2023/07/23 09:57:46;;;;;;;3.55;3.25;;;;;;;15.93;100.00;100473.47;5047372;28;20041;-66
2023/07/23 10:00:12;;;;;;;3.45;3.10;;;;;;;15.91;100.00;100474.81;5017476;28;20022;-66
2023/07/23 10:02:39;;;;;;;3.00;2.70;;;;;;;15.86;100.00;100469.38;5013085;28;20497;-69
2023/07/23 10:05:06;;;;;;;3.50;3.20;;;;;;;15.88;100.00;100467.19;5014474;28;20026;-66
2023/07/23 10:07:32;;;;;;;3.50;3.20;;;;;;;15.83;100.00;100476.16;5029070;28;20022;-66
2023/07/23 10:09:59;;;;;;;3.03;2.72;;;;;;;15.82;100.00;100476.44;5019344;28;20033;-73
2023/07/23 10:12:24;;;;;;;3.13;2.83;;;;;;;15.81;100.00;100483.81;5020125;28;20026;-68
2023/07/23 10:14:51;;;;;;;2.75;2.55;;;;;;;15.81;100.00;100477.56;5015131;28;20025;-67
2023/07/23 10:17:18;;;;;;;2.97;2.72;;;;;;;15.86;100.00;100491.19;5015121;28;20567;-67
2023/07/23 10:19:44;;;;;;;3.00;2.70;;;;;;;15.86;100.00;100486.53;5015046;28;20034;-66
2023/07/23 10:22:10;;;;;;;3.60;2.80;;;;;;;15.89;100.00;100486.00;5016299;28;20033;-66
2023/07/23 10:24:39;;;;;;;3.17;2.60;;;;;;;15.88;100.00;100489.00;5022857;28;20072;-71
2023/07/23 10:27:14;;;;;;;2.70;2.50;;;;;;;15.89;100.00;100485.19;5022799;28;20033;-66
2023/07/23 10:29:39;;;;;;;3.00;2.60;;;;;;;15.94;100.00;100485.19;5034734;28;20049;-66
2023/07/23 10:32:26;;;;;;;2.70;2.50;;;;;;;15.94;100.00;100483.31;5034169;28;20389;-67
2023/07/23 10:34:52;;;;;;;3.20;2.90;;;;;;;15.90;100.00;100493.13;5034716;28;20030;-67
2023/07/23 10:37:19;;;;;;;2.80;2.50;;;;;;;15.94;100.00;100485.19;5034798;28;20094;-67
2023/07/23 10:39:49;;;;;;;3.15;2.80;;;;;;;15.97;100.00;100487.38;5034351;28;20033;-67
2023/07/23 10:42:41;;;;;;;3.00;2.72;;;;;;;16.00;100.00;100491.50;5030993;28;20037;-68
2023/07/23 10:45:21;;;;;;;3.20;2.58;;;;;;;16.07;100.00;100486.59;5031946;28;20369;-69
2023/07/23 10:48:03;;;;;;;2.80;2.58;;;;;;;16.05;100.00;100494.25;5043356;28;20053;-66
2023/07/23 10:50:30;;;;;;;2.92;2.70;;;;;;;16.07;100.00;100486.59;5071937;28;20037;-66
2023/07/23 10:53:02;;;;;;;2.90;2.70;;;;;;;16.07;100.00;100481.94;5055723;28;20532;-66
2023/07/23 10:55:33;;;;;;;3.35;3.00;;;;;;;16.11;100.00;100484.97;5059518;28;20380;-65
2023/07/23 10:58:10;;;;;;;;;;;;;;;16.28;100.00;100487.44;5073973;28;20028;-66
2023/07/23 11:00:41;;;;;;;3.38;3.15;;;;;;;16.25;100.00;100482.53;5070514;28;20012;-67
2023/07/23 11:03:11;;;;;;;3.83;3.17;;;;;;;16.27;100.00;100489.38;5074302;28;20081;-67
2023/07/23 11:05:42;;;;;;;3.88;3.10;;;;;;;16.34;100.00;100483.63;5059875;28;20033;-67
2023/07/23 11:08:14;;;;;;;4.63;3.22;;;;;;;16.38;100.00;100484.72;5050680;28;20379;-67
2023/07/23 11:10:57;;;;;;;3.58;3.28;;;;;;;16.41;100.00;100494.25;5072805;28;20054;-67
2023/07/23 11:13:24;;;;;;;4.95;3.47;;;;;;;16.49;100.00;100482.81;5073968;28;20411;-67
2023/07/23 11:15:50;;;;;;;4.95;3.28;;;;;;;16.61;100.00;100490.72;5055730;28;20028;-67
2023/07/23 11:18:15;;;;;;;3.38;3.08;;;;;;;16.71;100.00;100479.75;5073161;28;20085;-66
2023/07/23 11:20:51;;;;;;;3.83;3.33;;;;;;;16.83;100.00;100488.50;5064535;28;20028;-66
2023/07/23 11:23:20;;;;;;;4.00;3.40;;;;;;;16.91;100.00;100489.06;5054477;28;20075;-67
2023/07/23 11:25:47;;;;;;;4.35;3.40;;;;;;;17.03;100.00;100486.88;5071698;28;20037;-67
2023/07/23 11:28:12;;;;;;;4.63;3.42;;;;;;;17.05;100.00;100481.94;5056381;28;20032;-66
2023/07/23 11:30:38;;;;;;;3.55;3.25;;;;;;;17.13;100.00;100489.56;5068198;28;20033;-67
2023/07/23 11:33:05;;;;;;;3.90;3.50;;;;;;;17.21;100.00;100487.34;5058122;28;20108;-68
2023/07/23 11:35:31;;;;;;;4.82;4.07;;;;;;;17.42;100.00;100475.25;5054151;28;20029;-68
2023/07/23 11:38:02;;;;;;;4.15;3.50;;;;;;;17.64;100.00;100477.59;5054097;28;20070;-71
2023/07/23 11:40:27;;;;;;;6.80;3.45;;;;;;;17.78;100.00;100474.25;5070675;28;20032;-69
2023/07/23 11:42:52;;;;;;;4.15;3.75;;;;;;;17.83;100.00;100483.25;5071397;28;20036;-67
2023/07/23 11:45:19;;;;;;;4.30;3.70;;;;;;;17.93;100.00;100474.16;5067521;28;20059;-68
2023/07/23 11:47:53;;;;;;;5.28;4.03;;;;;;;18.04;100.00;100472.19;5065594;28;20044;-68
2023/07/23 11:50:19;;;;;;;4.40;3.67;;;;;;;18.12;100.00;100471.59;5072367;28;20551;-68
2023/07/23 11:52:49;;;;;;;5.68;3.58;;;;;;;18.21;100.00;100478.09;5070627;28;20040;-71
2023/07/23 11:55:25;;;;;;;5.38;3.50;;;;;;;18.29;100.00;100473.13;5062727;28;20089;-69
2023/07/23 11:57:53;;;;;;;4.25;3.70;;;;;;;18.35;100.00;100471.97;5072660;28;20085;-65
2023/07/23 12:00:37;;;;;;;5.20;3.40;;;;;;;18.40;100.00;100467.28;5070397;28;20444;-65
2023/07/23 12:03:07;;;;;;;6.22;4.47;;;;;;;18.44;100.00;100470.25;5072868;28;20379;-69
2023/07/23 12:05:32;;;;;;;4.07;3.67;;;;;;;18.52;100.00;100472.34;5054898;28;20032;-68
2023/07/23 12:07:57;;;;;;;4.20;3.78;;;;;;;18.56;100.00;100469.88;5072636;28;20349;-67
2023/07/23 12:10:26;;;;;;;4.13;3.72;;;;;;;18.60;100.00;100469.00;5072878;28;20020;-67
2023/07/23 12:12:51;;;;;;;5.30;3.75;;;;;;;18.67;100.00;100459.63;5072672;28;20522;-66
2023/07/23 12:15:17;;;;;;;4.47;3.95;;;;;;;18.78;100.00;100456.50;5063480;28;20061;-67
2023/07/23 12:17:44;;;;;;;4.10;3.53;;;;;;;18.80;100.00;100467.19;5052581;28;20035;-67
2023/07/23 12:20:15;;;;;;;5.63;3.47;;;;;;;18.81;100.00;100463.34;5060474;28;20024;-67
2023/07/23 12:22:53;;;;;;;;;;;;;;;18.90;100.00;100456.13;5072694;28;20070;-67
2023/07/23 12:25:19;;;;;;;10.88;3.85;;;;;;;18.85;100.00;100455.34;5069615;28;19913;-67
2023/07/23 12:27:45;;;;;;;5.88;3.67;;;;;;;18.88;100.00;100458.34;5069874;28;20033;-67
2023/07/23 12:30:10;;;;;;;5.05;3.88;;;;;;;18.93;100.00;100449.25;5062499;28;20036;-64
2023/07/23 12:32:36;;;;;;;3.97;3.55;;;;;;;18.95;100.00;100447.03;5060924;28;20060;-66
2023/07/23 12:35:01;;;;;;;6.25;3.63;;;;;;;18.99;100.00;100442.59;5064622;28;20025;-70
2023/07/23 12:37:27;;;;;;;4.22;3.38;;;;;;;19.00;100.00;100457.13;5060314;28;20052;-67
2023/07/23 12:39:56;;;;;;;4.20;3.53;;;;;;;18.95;100.00;100453.34;5062015;28;20085;-66
2023/07/23 12:42:22;;;;;;;6.55;3.45;;;;;;;18.93;100.00;100450.06;5064765;28;20069;-67
2023/07/23 12:44:48;;;;;;;5.30;3.55;;;;;;;18.99;100.00;100455.50;5063153;28;20040;-65
2023/07/23 12:47:14;;;;;;;4.95;3.70;;;;;;;19.02;100.00;100452.16;5063452;28;20450;-65
2023/07/23 12:49:39;;;;;;;6.38;3.67;;;;;;;19.04;100.00;100448.03;5063916;28;20039;-69
2023/07/23 12:52:05;;;;;;;6.97;3.80;;;;;;;19.06;100.00;100442.25;5063380;28;20033;-67
2023/07/23 12:54:31;;;;;;;4.95;3.60;;;;;;;19.03;100.00;100448.31;5061162;28;20034;-67
2023/07/23 12:56:56;;;;;;;3.97;3.60;;;;;;;18.98;100.00;100448.38;5064503;28;20051;-64
2023/07/23 12:59:22;;;;;;;4.70;3.58;;;;;;;18.97;100.00;100446.75;5072656;28;20377;-70
2023/07/23 13:01:49;;;;;;;4.10;3.30;;;;;;;18.93;100.00;100444.59;5069729;28;20041;-69
2023/07/23 13:04:15;;;;;;;4.45;3.53;;;;;;;18.92;100.00;100450.38;5070672;28;20051;-67
2023/07/23 13:06:40;;;;;;;6.60;3.60;;;;;;;18.92;100.00;100453.91;5071240;28;20468;-68
2023/07/23 13:09:05;;;;;;;4.28;3.55;;;;;;;18.95;100.00;100447.84;5044931;28;20112;-65
2023/07/23 13:11:31;;;;;;;5.45;3.72;;;;;;;18.95;100.00;100450.59;5068508;28;20044;-65
2023/07/23 13:13:56;;;;;;;6.10;3.53;;;;;;;18.98;100.00;100456.59;5053959;28;20027;-65
2023/07/23 13:16:21;;;;;;;7.03;3.22;;;;;;;19.04;100.00;100459.00;5071008;28;20124;-67
2023/07/23 13:18:47;;;;;;;5.97;3.47;;;;;;;19.09;100.00;100452.63;5059344;28;20515;-67
2023/07/23 13:21:12;;;;;;;5.03;3.70;;;;;;;19.17;100.00;100446.50;5071972;28;20104;-67
2023/07/23 13:23:38;;;;;;;4.70;3.33;;;;;;;19.39;100.00;100432.25;5066636;28;20032;-66
2023/07/23 13:26:03;;;;;;;3.90;3.33;;;;;;;19.61;100.00;100431.69;5065972;28;20379;-66
2023/07/23 13:28:28;;;;;;;7.22;3.20;;;;;;;19.77;100.00;100434.19;5071979;28;20426;-66
2023/07/23 13:30:55;;;;;;;5.18;3.65;;;;;;;20.06;100.00;100430.50;5071650;28;20024;-68
2023/07/23 13:33:20;;;;;;;4.38;3.38;;;;;;;20.27;100.00;100434.53;5072047;28;20078;-69
2023/07/23 13:35:47;;;;;;;6.60;3.47;;;;;;;20.34;100.00;100432.22;5069409;28;20069;-69
2023/07/23 13:38:12;;;;;;;6.55;3.42;;;;;;;20.48;100.00;100434.19;5073310;28;20036;-71
2023/07/23 13:40:39;;;;;;;4.57;3.15;;;;;;;20.52;100.00;100433.28;5073887;28;20021;-70
2023/07/23 13:43:04;;;;;;;3.20;2.90;;;;;;;20.60;100.00;100433.72;5044191;28;20044;-68
2023/07/23 13:45:29;;;;;;;3.85;2.90;;;;;;;20.66;100.00;100421.53;5073436;28;20108;-66
2023/07/23 13:47:55;;;;;;;4.65;3.28;;;;;;;20.80;100.00;100427.84;5063672;28;20059;-67
2023/07/23 13:50:20;;;;;;;7.13;3.15;;;;;;;20.91;100.00;100425.72;5057703;28;20449;-65
2023/07/23 13:52:45;;;;;;;5.13;3.00;;;;;;;20.99;100.00;100427.75;5074906;28;20025;-67
2023/07/23 13:55:12;;;;;;;5.18;3.50;;;;;;;21.15;100.00;100414.53;5056266;28;20487;-67
2023/07/23 13:57:37;;;;;;;4.40;3.03;;;;;;;21.19;100.00;100423.75;5057091;28;20443;-66
2023/07/23 14:00:03;;;;;;;6.80;3.55;;;;;;;21.25;100.00;100417.03;5075410;28;20067;-66
2023/07/23 14:02:29;;;;;;;5.63;2.80;;;;;;;21.38;100.00;100431.09;5054296;28;20418;-68
2023/07/23 14:04:54;;;;;;;3.72;2.70;;;;;;;21.35;100.00;100424.28;5071347;28;20036;-69
2023/07/23 14:07:19;;;;;;;4.50;2.90;;;;;;;21.31;100.00;100422.44;5074435;28;20054;-71
2023/07/23 14:09:45;;;;;;;3.80;2.70;;;;;;;21.19;100.00;100433.97;5057119;28;20361;-68
2023/07/23 14:12:10;;;;;;;7.03;3.00;;;;;;;21.05;100.00;100421.03;5057258;28;20444;-66
2023/07/23 14:14:36;;;;;;;4.43;3.05;;;;;;;20.99;100.00;100425.00;5055462;28;20025;-67
2023/07/23 14:17:02;;;;;;;5.30;2.83;;;;;;;20.84;100.00;100428.06;5074527;28;20387;-67
2023/07/23 14:19:27;;;;;;;4.95;2.90;;;;;;;20.71;100.00;100430.50;5054964;28;20040;-67
2023/07/23 14:21:53;;;;;;;3.88;2.80;;;;;;;20.62;100.00;100420.47;5073151;28;20038;-67
2023/07/23 14:24:20;;;;;;;7.07;3.15;;;;;;;20.59;100.00;100426.56;5047197;28;20059;-67
2023/07/23 14:26:46;;;;;;;6.00;3.15;;;;;;;20.56;100.00;100421.69;5066578;28;20043;-67
2023/07/23 14:29:11;;;;;;;8.45;3.22;;;;;;;20.51;100.00;100431.63;5060986;28;20509;-66
2023/07/23 14:31:37;;;;;;;3.85;3.00;;;;;;;20.42;100.00;100438.16;5091928;28;20111;-66
2023/07/23 14:34:02;;;;;;;6.75;3.20;;;;;;;20.41;100.00;100445.59;5079836;28;20028;-68
2023/07/23 14:36:27;;;;;;;5.82;3.20;;;;;;;20.35;100.00;100422.03;5072469;28;20028;-71
2023/07/23 14:38:53;;;;;;;7.63;3.03;;;;;;;20.30;100.00;100431.19;5044181;28;20029;-68
2023/07/23 14:41:18;;;;;;;4.47;3.00;;;;;;;20.28;100.00;100429.88;5070228;28;20424;-69
2023/07/23 14:43:45;;;;;;;3.17;2.75;;;;;;;20.31;100.00;100421.03;5069514;28;20041;-74
2023/07/23 14:46:11;;;;;;;5.07;2.70;;;;;;;20.32;100.00;100420.72;5064395;28;20104;-71
2023/07/23 14:48:36;;;;;;;3.22;2.92;;;;;;;20.46;100.00;100415.25;5072240;28;20131;-69
2023/07/23 14:51:02;;;;;;;3.00;2.70;;;;;;;20.54;100.00;100424.72;5074043;28;20488;-76
2023/07/23 14:53:28;;;;;;;3.40;2.80;;;;;;;20.74;100.00;100417.25;5074587;28;20044;-71
2023/07/23 14:55:53;;;;;;;2.63;2.42;;;;;;;20.96;100.00;100411.88;5074208;28;20024;-68
2023/07/23 14:58:18;;;;;;;4.38;3.08;;;;;;;21.25;100.00;100410.72;5074606;28;20135;-69
2023/07/23 15:00:46;;;;;;;3.80;2.80;;;;;;;21.35;100.00;100409.72;5072303;28;20029;-69
2023/07/23 15:03:17;;;;;;;4.55;2.83;;;;;;;21.27;100.00;100422.22;5069932;28;20490;-69
2023/07/23 15:05:43;;;;;;;4.05;3.33;;;;;;;21.29;100.00;100414.50;5069620;28;20032;-72
2023/07/23 15:08:09;;;;;;;3.53;2.90;;;;;;;21.34;100.00;100410.81;5079970;28;20497;-68
2023/07/23 15:10:35;;;;;;;5.53;3.58;;;;;;;21.29;100.00;100405.41;5064942;28;20032;-66
2023/07/23 15:13:01;;;;;;;3.85;3.47;;;;;;;21.46;100.00;100408.34;5073580;28;20047;-68
2023/07/23 15:15:27;;;;;;;3.72;3.15;;;;;;;21.73;100.00;100410.25;5069836;28;20104;-66
2023/07/23 15:17:53;;;;;;;3.45;3.15;;;;;;;21.72;100.00;100403.09;5073024;28;20120;-65
2023/07/23 15:20:18;;;;;;;5.38;3.53;;;;;;;21.65;100.00;100402.72;5073482;28;20173;-65
2023/07/23 15:22:44;;;;;;;4.53;3.60;;;;;;;21.46;100.00;100396.53;5079028;28;20491;-66
2023/07/23 15:25:11;;;;;;;5.35;3.65;;;;;;;21.33;100.00;100398.19;5093054;28;20028;-65
2023/07/23 15:27:38;;;;;;;4.13;3.33;;;;;;;21.17;100.00;100403.22;5082918;28;20045;-65
2023/07/23 15:30:05;;;;;;;5.32;3.75;;;;;;;21.10;100.00;100408.31;5072970;28;20044;-65
2023/07/23 15:32:30;;;;;;;5.82;3.40;;;;;;;20.99;100.00;100414.00;5071462;28;20032;-66
2023/07/23 15:34:55;;;;;;;4.55;3.60;;;;;;;20.87;100.00;100410.97;5091559;28;20050;-66
2023/07/23 15:37:21;;;;;;;4.88;3.47;;;;;;;20.71;100.00;100419.50;5093172;28;20036;-67
2023/07/23 15:39:46;;;;;;;3.97;3.53;;;;;;;20.54;100.00;100408.25;5054779;28;20056;-71
2023/07/23 15:42:11;;;;;;;5.10;3.80;;;;;;;20.39;100.00;100409.31;5041185;28;20036;-72
2023/07/23 15:44:37;;;;;;;4.18;3.42;;;;;;;20.22;100.00;100412.66;5065623;28;20032;-75
2023/07/23 15:47:02;;;;;;;5.85;3.40;;;;;;;20.08;100.00;100420.84;5068761;28;20040;-70
2023/07/23 15:49:28;;;;;;;3.58;3.28;;;;;;;19.96;100.00;100437.78;5066480;28;20032;-71
2023/07/23 15:51:53;;;;;;;6.07;3.85;;;;;;;19.84;100.00;100431.94;5075211;28;20071;-66
2023/07/23 15:54:19;;;;;;;5.05;3.67;;;;;;;19.68;100.00;100430.50;5092951;28;20028;-67
2023/07/23 15:56:44;;;;;;;4.20;3.80;;;;;;;19.51;100.00;100431.81;5080853;28;20024;-65
2023/07/23 15:59:10;;;;;;;4.25;3.85;;;;;;;19.34;100.00;100426.00;5071579;28;20032;-64
